Aérodrome :
LOGIN :

S'inscrire | Disclaimer

   EN    FR    IT 

 










Légende :    VFR   VFR Marginal   IFR   IFR Intensif   IFR Très Intensif
Visi : 
Plafond : 
>= 8 km
>= 3000ft
5 à 8 km
1000 à 3000 ft
1500m à 5 km
500 à 1000 ft
800 à 1500m
200 à 500 ft
< 800m
< 200 ft
Symboles :   Orages  Brouillard  Fortes neiges  Fortes précipitations  Vent > 20 kt
SIGMETs :   Divers  Orages  Givrage  Turbulence  Onde Orograph.  Cendres Volcan.






- Altitude de l'aérodrome : 1475 ft


LSZC - Buochs Stans

DERNIER METAR :
  • 041050Z AUTO 25004KT 9999 -RA FEW004 BKN018 12/11 Q1018

METARs EXPIRÉS :
  • 041020Z AUTO 27004KT 220V320 9999 RA SCT018 BKN021 BKN024 12/11 Q1017
  • 040950Z 28006KT 220V320 5000 RA FEW013 BKN022 OVC037 12/11 Q1017
  • 040920Z 22004KT 200V260 5000 +RA SCT021 BKN030 12/11 Q1017
  • 040850Z 24004KT 6000 RA FEW007 OVC024 12/11 Q1017
  • 040820Z 21006KT 7000 +RA FEW008 OVC024 12/10 Q1016

TAF TAF LSZC
Valide du 04 à 09h jusqu'au 04 à 18h UTC


040825Z 0409/0418 22005KT 8000 -RA FEW005 BKN020
TEMPO 0409/0416 4000 RA BKN013



MET'MAP, la Météo Aéronautique d'un coup d'oeil ! - Copyright ORBIFLY Décembre 2007 - Disclaimer

ORBIFLY MET'MAP TEAM :

Programmation & Développement : Alexandra Zaïnal
Sur une idée originale de : Baudouin d'Aumeries
Assistance à la programmation : Marc-Olivier Méhu
Soutien technique & logistique : Manuel Goepfert

Contact : metmap@orbifly.com




SOURCES & CREDITS :

   NOAA